createdAt,value
2022-10-05T00:01:22.142Z,6.05
2022-10-05T00:03:51.076Z,4.72
2022-10-05T00:06:19.841Z,5.43
2022-10-05T00:08:48.393Z,5.18
2022-10-05T00:11:18.839Z,4.07
2022-10-05T00:13:47.389Z,6.60
2022-10-05T00:16:20.771Z,6.28
2022-10-05T00:18:53.355Z,5.97
2022-10-05T00:21:24.014Z,4.40
2022-10-05T00:23:53.362Z,5.40
2022-10-05T00:26:24.537Z,5.13
2022-10-05T00:28:54.947Z,5.78
2022-10-05T00:31:26.978Z,5.72
2022-10-05T00:33:56.921Z,7.57
2022-10-05T00:36:26.345Z,5.57
2022-10-05T00:38:55.818Z,5.60
2022-10-05T00:41:33.806Z,5.82
2022-10-05T00:44:27.180Z,5.20
2022-10-05T00:47:07.113Z,5.13
2022-10-05T00:49:55.491Z,7.22
2022-10-05T00:52:32.174Z,5.32
2022-10-05T00:55:12.111Z,4.45
2022-10-05T00:57:56.628Z,5.90
2022-10-05T01:00:27.539Z,8.70
2022-10-05T01:03:04.451Z,6.15
2022-10-05T01:05:47.525Z,5.65
2022-10-05T01:08:27.651Z,5.13
2022-10-05T01:11:05.460Z,5.53
2022-10-05T01:13:43.512Z,5.30
2022-10-05T01:16:20.863Z,6.55
2022-10-05T01:18:58.330Z,5.43
2022-10-05T01:21:28.360Z,4.32
2022-10-05T01:24:37.928Z,4.53
2022-10-05T01:27:41.193Z,4.88
2022-10-05T01:30:14.007Z,5.75
2022-10-05T01:32:49.903Z,8.13
2022-10-05T01:35:31.224Z,5.72
2022-10-05T01:38:13.072Z,4.20
2022-10-05T01:40:50.654Z,4.13
2022-10-05T01:43:28.602Z,3.97
2022-10-05T01:46:04.858Z,6.88
2022-10-05T01:48:43.485Z,4.13
2022-10-05T01:51:23.694Z,7.60
2022-10-05T01:54:04.861Z,4.35
2022-10-05T01:59:22.722Z,5.50
2022-10-05T02:01:59.934Z,4.18
2022-10-05T02:05:00.879Z,3.50
2022-10-05T02:07:27.804Z,4.70
2022-10-05T02:10:00.955Z,3.53
2022-10-05T02:12:32.950Z,5.25
2022-10-05T02:15:12.175Z,5.25
2022-10-05T02:17:47.290Z,4.35
2022-10-05T02:20:23.821Z,5.70
2022-10-05T02:22:57.324Z,6.85
2022-10-05T02:25:31.054Z,3.75
2022-10-05T02:28:05.387Z,5.53
2022-10-05T02:30:41.530Z,3.28
2022-10-05T02:33:19.161Z,4.72
2022-10-05T02:35:48.329Z,3.35
2022-10-05T02:38:26.311Z,6.20
2022-10-05T02:41:03.254Z,5.20
2022-10-05T02:43:40.753Z,7.45
2022-10-05T02:46:26.112Z,6.82
2022-10-05T02:49:06.883Z,6.40
2022-10-05T02:51:48.369Z,7.63
2022-10-05T02:54:28.823Z,8.02
2022-10-05T02:57:02.531Z,7.35
2022-10-05T02:59:37.317Z,7.00
2022-10-05T03:02:17.306Z,7.70
2022-10-05T03:04:55.344Z,8.40
2022-10-05T03:07:29.244Z,8.77
2022-10-05T03:10:06.222Z,7.32
2022-10-05T03:12:53.442Z,7.93
2022-10-05T03:15:46.354Z,7.95
2022-10-05T03:18:29.874Z,9.45
2022-10-05T03:21:12.184Z,6.60
2022-10-05T03:23:54.767Z,7.80
2022-10-05T03:26:40.360Z,7.15
2022-10-05T03:29:17.480Z,9.93
2022-10-05T03:31:51.461Z,7.85
2022-10-05T03:34:28.881Z,8.57
2022-10-05T03:37:07.746Z,8.95
2022-10-05T03:39:41.353Z,7.80
2022-10-05T03:42:21.590Z,9.07
2022-10-05T03:44:58.372Z,9.88
2022-10-05T03:47:34.591Z,12.20
2022-10-05T03:50:30.944Z,9.73
2022-10-05T03:53:06.385Z,10.10
2022-10-05T03:55:41.073Z,9.30
2022-10-05T03:58:18.747Z,7.70
2022-10-05T04:00:53.290Z,10.93
2022-10-05T04:03:28.083Z,10.43
2022-10-05T04:06:03.871Z,10.45
2022-10-05T04:08:45.374Z,10.32
2022-10-05T04:11:22.725Z,7.82
2022-10-05T04:13:56.843Z,9.25
2022-10-05T04:16:29.361Z,10.18
2022-10-05T04:19:05.166Z,9.68
2022-10-05T04:21:42.846Z,9.93
2022-10-05T04:24:17.066Z,7.72
2022-10-05T04:26:53.770Z,10.43
2022-10-05T04:29:32.959Z,10.70
2022-10-05T04:32:30.050Z,8.65
2022-10-05T04:35:14.143Z,8.27
2022-10-05T04:37:55.106Z,10.55
2022-10-05T04:40:38.788Z,12.68
2022-10-05T04:43:15.520Z,14.00
2022-10-05T04:46:05.779Z,14.02
2022-10-05T04:49:05.102Z,11.70
2022-10-05T04:51:41.851Z,16.60
2022-10-05T04:54:21.280Z,13.65
2022-10-05T04:56:56.766Z,11.32
2022-10-05T04:59:57.068Z,13.07
2022-10-05T05:02:36.681Z,11.00
2022-10-05T05:05:32.168Z,12.55
2022-10-05T05:08:17.244Z,16.02
2022-10-05T05:11:00.620Z,13.07
2022-10-05T05:14:15.307Z,12.50
2022-10-05T05:16:46.463Z,12.32
2022-10-05T05:19:38.443Z,10.82
2022-10-05T05:22:13.183Z,14.73
2022-10-05T05:24:59.141Z,11.38
2022-10-05T05:27:43.492Z,13.23
2022-10-05T05:30:21.404Z,12.93
2022-10-05T05:33:02.563Z,13.15
2022-10-05T05:35:58.102Z,11.98
2022-10-05T05:38:33.222Z,8.38
2022-10-05T05:41:13.859Z,8.00
2022-10-05T05:43:57.359Z,9.82
2022-10-05T05:46:45.020Z,9.40
2022-10-05T05:49:24.400Z,9.90
2022-10-05T05:52:00.884Z,9.38
2022-10-05T05:54:37.139Z,7.95
2022-10-05T05:57:13.719Z,7.20
2022-10-05T05:59:59.432Z,8.50
2022-10-05T06:02:35.856Z,11.95
2022-10-05T06:05:28.762Z,9.30
2022-10-05T06:08:02.981Z,13.38
2022-10-05T06:10:41.660Z,8.82
2022-10-05T06:13:19.461Z,6.85
2022-10-05T06:15:55.556Z,9.90
2022-10-05T06:18:24.960Z,8.55
2022-10-05T06:21:01.372Z,8.82
2022-10-05T06:23:40.526Z,12.38
2022-10-05T06:26:32.944Z,7.88
2022-10-05T06:29:05.502Z,10.45
2022-10-05T06:31:58.732Z,9.70
2022-10-05T06:34:48.198Z,9.02
2022-10-05T06:37:25.369Z,4.68
2022-10-05T06:40:12.719Z,10.15
2022-10-05T06:42:51.177Z,6.80
2022-10-05T06:45:53.305Z,9.40
2022-10-05T06:49:04.959Z,9.27
2022-10-05T06:52:02.658Z,6.40
2022-10-05T06:54:47.623Z,6.03
2022-10-05T06:57:36.812Z,6.38
2022-10-05T07:00:17.669Z,7.00
2022-10-05T07:03:02.106Z,6.35
2022-10-05T07:06:03.562Z,6.13
2022-10-05T07:11:34.716Z,8.75
2022-10-05T07:14:29.701Z,8.40
2022-10-05T07:17:15.948Z,4.40
2022-10-05T07:19:54.997Z,9.05
2022-10-05T07:22:44.040Z,7.10
2022-10-05T07:25:19.498Z,7.88
2022-10-05T07:27:55.285Z,6.63
2022-10-05T07:30:24.828Z,7.65
2022-10-05T07:33:01.233Z,6.90
2022-10-05T07:35:57.840Z,6.03
2022-10-05T07:38:33.207Z,3.90
2022-10-05T07:41:07.681Z,6.55
2022-10-05T07:44:02.086Z,6.88
2022-10-05T07:46:48.473Z,5.10
2022-10-05T07:49:26.827Z,6.28
2022-10-05T07:52:01.086Z,4.60
2022-10-05T07:54:41.824Z,7.07
2022-10-05T07:57:22.600Z,4.30
2022-10-05T07:59:58.819Z,7.53
2022-10-05T08:02:30.742Z,4.95
2022-10-05T08:05:05.190Z,8.07
2022-10-05T08:07:37.117Z,8.05
2022-10-05T08:10:25.547Z,4.57
2022-10-05T08:13:05.366Z,6.43
2022-10-05T08:15:38.526Z,4.30
2022-10-05T08:18:16.606Z,7.18
2022-10-05T08:20:48.099Z,6.30
2022-10-05T08:23:25.368Z,7.10
2022-10-05T08:26:07.967Z,8.30
2022-10-05T08:28:39.770Z,8.73
2022-10-05T08:31:17.941Z,9.35
2022-10-05T08:33:56.739Z,11.27
2022-10-05T08:36:35.259Z,9.90
2022-10-05T08:39:11.279Z,8.65
2022-10-05T08:42:17.067Z,8.75
2022-10-05T08:45:40.361Z,10.40
2022-10-05T08:48:40.565Z,10.27
2022-10-05T08:51:44.549Z,12.35
2022-10-05T08:54:37.610Z,7.43
2022-10-05T08:57:42.501Z,10.00
2022-10-05T09:00:14.340Z,10.88
2022-10-05T09:03:05.581Z,8.77
2022-10-05T09:06:19.510Z,9.13
2022-10-05T09:09:20.862Z,13.13
2022-10-05T09:12:04.581Z,10.40
2022-10-05T09:14:56.570Z,7.93
2022-10-05T09:18:07.384Z,8.20
2022-10-05T09:20:51.534Z,8.55
2022-10-05T09:23:32.265Z,11.65
2022-10-05T09:26:09.040Z,6.40
2022-10-05T09:28:56.499Z,9.45
2022-10-05T09:31:42.717Z,9.70
2022-10-05T09:34:40.341Z,10.70
2022-10-05T09:37:36.519Z,14.00
2022-10-05T09:40:50.809Z,16.50
2022-10-05T09:43:57.426Z,9.55
2022-10-05T09:47:01.007Z,10.05
2022-10-05T09:50:11.019Z,8.82
2022-10-05T09:53:07.372Z,12.82
2022-10-05T09:56:09.287Z,10.93
2022-10-05T09:59:25.279Z,11.23
2022-10-05T10:02:17.189Z,12.98
2022-10-05T10:05:30.200Z,16.95
2022-10-05T10:08:11.818Z,11.75
2022-10-05T10:11:03.465Z,14.27
2022-10-05T10:13:54.079Z,18.02
2022-10-05T10:16:43.145Z,14.23
2022-10-05T10:19:35.318Z,16.55
2022-10-05T10:22:25.837Z,13.35
2022-10-05T10:25:16.782Z,24.17
2022-10-05T10:28:08.115Z,16.05
2022-10-05T10:31:02.895Z,15.55
2022-10-05T10:34:12.779Z,21.23
2022-10-05T10:37:16.518Z,19.67
2022-10-05T10:40:05.108Z,23.83
2022-10-05T10:42:46.582Z,21.55
2022-10-05T10:45:21.404Z,27.05
2022-10-05T10:47:57.367Z,28.20
2022-10-05T10:51:11.788Z,27.88
2022-10-05T10:54:12.549Z,25.33
2022-10-05T10:56:55.352Z,28.58
2022-10-05T11:00:23.168Z,28.35
2022-10-05T11:03:22.872Z,32.75
2022-10-05T11:06:19.133Z,29.48
2022-10-05T11:09:09.973Z,30.20
2022-10-05T11:12:08.342Z,32.90
2022-10-05T11:14:58.632Z,28.33
2022-10-05T11:17:37.544Z,26.07
2022-10-05T11:20:25.325Z,25.83
2022-10-05T11:23:04.669Z,28.13
2022-10-05T11:25:44.641Z,26.40
2022-10-05T11:28:53.232Z,26.95
2022-10-05T11:31:58.546Z,29.80
2022-10-05T11:34:53.422Z,31.40
2022-10-05T11:37:47.647Z,25.35
2022-10-05T11:40:55.925Z,30.10
2022-10-05T11:43:54.550Z,30.27
2022-10-05T11:46:29.184Z,29.13
2022-10-05T11:49:23.484Z,29.45
2022-10-05T11:52:05.602Z,28.33
2022-10-05T11:55:11.008Z,24.63
2022-10-05T11:57:47.873Z,24.20
2022-10-05T12:00:20.087Z,33.28
2022-10-05T12:03:25.640Z,28.58
2022-10-05T12:06:17.583Z,36.90
2022-10-05T12:09:00.886Z,36.08
2022-10-05T12:11:47.527Z,29.90
2022-10-05T12:14:26.034Z,37.42
2022-10-05T12:17:01.144Z,32.65
2022-10-05T12:19:36.889Z,33.05
2022-10-05T12:22:15.631Z,30.98
2022-10-05T12:25:06.748Z,27.83
2022-10-05T12:30:15.350Z,36.50
2022-10-05T12:33:01.698Z,37.75
2022-10-05T12:35:47.880Z,33.15
2022-10-05T12:38:28.923Z,33.15
2022-10-05T12:41:07.382Z,38.30
2022-10-05T12:43:50.519Z,36.22
2022-10-05T12:46:28.059Z,34.28
2022-10-05T12:49:18.239Z,41.95
2022-10-05T12:51:54.111Z,35.75
2022-10-05T12:54:32.099Z,39.53
2022-10-05T12:57:07.845Z,36.72
2022-10-05T12:59:42.207Z,32.70
2022-10-05T13:02:25.100Z,39.10
2022-10-05T13:05:04.073Z,33.17
2022-10-05T13:07:47.150Z,33.60
2022-10-05T13:10:30.971Z,37.85
2022-10-05T13:13:23.869Z,31.85
2022-10-05T13:15:57.837Z,38.15
2022-10-05T13:18:35.601Z,30.77
2022-10-05T13:21:12.660Z,27.27
2022-10-05T13:23:56.563Z,36.30
2022-10-05T13:26:33.746Z,28.80
2022-10-05T13:29:14.352Z,32.08
2022-10-05T13:31:48.115Z,32.90
2022-10-05T13:34:29.545Z,28.42
2022-10-05T13:37:11.274Z,29.45
2022-10-05T13:39:53.752Z,27.85
2022-10-05T13:42:34.236Z,32.17
2022-10-05T13:45:14.836Z,29.75
2022-10-05T13:47:51.703Z,29.70
2022-10-05T13:50:25.823Z,25.13
2022-10-05T13:53:01.272Z,31.10
2022-10-05T13:55:38.906Z,25.05
2022-10-05T13:58:16.830Z,27.17
2022-10-05T14:00:52.045Z,25.05
2022-10-05T14:03:30.927Z,26.48
2022-10-05T14:06:01.903Z,26.60
2022-10-05T14:11:00.660Z,25.95
2022-10-05T14:13:35.784Z,25.35
2022-10-05T14:16:20.131Z,25.45
2022-10-05T14:18:58.746Z,22.05
2022-10-05T14:21:30.745Z,26.73
2022-10-05T14:24:39.582Z,25.00
2022-10-05T14:27:22.896Z,30.73
2022-10-05T14:29:58.838Z,27.30
2022-10-05T14:32:31.648Z,23.85
2022-10-05T14:35:16.309Z,23.38
2022-10-05T14:37:50.722Z,22.27
2022-10-05T14:40:37.038Z,31.55
2022-10-05T14:43:20.729Z,21.55
2022-10-05T14:45:59.579Z,21.58
2022-10-05T14:48:30.430Z,21.35
2022-10-05T14:51:02.446Z,25.95
2022-10-05T14:53:40.807Z,26.58
2022-10-05T14:56:24.926Z,22.52
2022-10-05T14:59:26.048Z,20.33
2022-10-05T15:02:02.629Z,23.67
2022-10-05T15:04:43.294Z,30.20
2022-10-05T15:07:23.594Z,24.42
2022-10-05T15:10:08.909Z,25.88
2022-10-05T15:12:41.705Z,20.13
2022-10-05T15:15:27.245Z,19.52
2022-10-05T15:18:01.687Z,18.70
2022-10-05T15:20:36.442Z,21.55
2022-10-05T15:23:24.740Z,21.55
2022-10-05T15:26:02.399Z,19.40
2022-10-05T15:28:39.335Z,29.23
2022-10-05T15:31:25.199Z,25.40
2022-10-05T15:34:02.040Z,26.92
2022-10-05T15:36:43.143Z,22.48
2022-10-05T15:41:59.021Z,20.67
2022-10-05T15:44:46.564Z,24.05
2022-10-05T15:47:21.137Z,22.20
2022-10-05T15:50:03.597Z,29.05
2022-10-05T15:52:39.135Z,21.98
2022-10-05T15:55:40.023Z,20.83
2022-10-05T15:58:31.862Z,18.70
2022-10-05T16:01:08.435Z,20.40
2022-10-05T16:03:47.222Z,21.00
2022-10-05T16:07:00.181Z,19.77
2022-10-05T16:09:39.319Z,20.45
2022-10-05T16:12:21.360Z,26.95
2022-10-05T16:15:00.148Z,20.35
2022-10-05T16:17:45.220Z,21.95
2022-10-05T16:20:26.726Z,19.85
2022-10-05T16:23:04.263Z,21.83
2022-10-05T16:25:47.922Z,28.35
2022-10-05T16:28:36.870Z,23.67
2022-10-05T16:31:18.706Z,25.58
2022-10-05T16:34:03.501Z,21.05
2022-10-05T16:36:48.982Z,24.77
2022-10-05T16:39:38.642Z,22.38
2022-10-05T16:42:18.513Z,17.40
2022-10-05T16:44:57.780Z,20.75
2022-10-05T16:47:41.499Z,23.90
2022-10-05T16:50:21.461Z,21.95
2022-10-05T16:52:57.925Z,21.27
2022-10-05T16:55:36.006Z,20.05
2022-10-05T16:58:13.305Z,21.67
2022-10-05T17:01:06.022Z,20.10
2022-10-05T17:03:52.425Z,19.95
2022-10-05T17:06:42.547Z,22.40
2022-10-05T17:09:37.534Z,25.13
2022-10-05T17:12:36.987Z,23.55
2022-10-05T17:15:20.547Z,22.55
2022-10-05T17:18:08.680Z,25.05
2022-10-05T17:20:47.424Z,20.73
2022-10-05T17:23:30.459Z,20.48
2022-10-05T17:26:09.672Z,19.17
2022-10-05T17:28:45.706Z,21.40
2022-10-05T17:31:19.354Z,25.25
2022-10-05T17:34:26.794Z,21.50
2022-10-05T17:36:59.978Z,19.38
2022-10-05T17:39:50.170Z,23.05
2022-10-05T17:42:50.148Z,26.97
2022-10-05T17:45:53.578Z,23.60
2022-10-05T17:48:40.569Z,27.58
2022-10-05T17:52:05.707Z,19.08
2022-10-05T17:55:30.784Z,23.35
2022-10-05T17:58:01.899Z,17.83
2022-10-05T18:01:17.717Z,22.70
2022-10-05T18:03:52.160Z,20.15
2022-10-05T18:06:34.600Z,20.98
2022-10-05T18:09:39.599Z,22.08
2022-10-05T18:12:45.437Z,27.08
2022-10-05T18:15:45.310Z,20.67
2022-10-05T18:18:58.981Z,23.15
2022-10-05T18:21:39.821Z,25.25
2022-10-05T18:24:45.683Z,21.67
2022-10-05T18:27:36.821Z,21.75
2022-10-05T18:30:19.284Z,30.30
2022-10-05T18:33:04.973Z,26.02
2022-10-05T18:35:46.256Z,22.05
2022-10-05T18:38:30.216Z,25.85
2022-10-05T18:41:05.379Z,22.05
2022-10-05T18:43:44.415Z,21.15
2022-10-05T18:46:29.467Z,21.20
2022-10-05T18:49:10.897Z,22.70
2022-10-05T18:51:51.957Z,29.80
2022-10-05T18:54:41.817Z,27.13
2022-10-05T18:57:51.460Z,27.55
2022-10-05T19:00:22.758Z,21.67
2022-10-05T19:02:57.315Z,22.75
2022-10-05T19:05:49.137Z,21.10
2022-10-05T19:08:33.203Z,23.20
2022-10-05T19:11:12.405Z,19.35
2022-10-05T19:13:51.270Z,21.55
2022-10-05T19:16:37.863Z,23.63
2022-10-05T19:19:30.748Z,24.60
2022-10-05T19:22:08.805Z,21.80
2022-10-05T19:24:50.505Z,26.27
2022-10-05T19:27:28.404Z,23.42
2022-10-05T19:30:13.720Z,23.30
2022-10-05T19:32:56.408Z,21.58
2022-10-05T19:35:32.568Z,21.05
2022-10-05T19:40:58.969Z,23.88
2022-10-05T19:43:50.708Z,19.15
2022-10-05T19:46:34.186Z,25.17
2022-10-05T19:49:03.006Z,23.95
2022-10-05T19:51:34.179Z,30.85
2022-10-05T19:54:08.043Z,25.65
2022-10-05T19:56:49.738Z,26.95
2022-10-05T19:59:24.677Z,22.13
2022-10-05T20:01:55.549Z,19.63
2022-10-05T20:07:06.776Z,20.52
2022-10-05T20:09:52.067Z,24.10
2022-10-05T20:12:23.227Z,27.50
2022-10-05T20:18:04.247Z,24.80
2022-10-05T20:20:43.302Z,24.38
2022-10-05T20:23:28.160Z,23.48
2022-10-05T20:26:14.025Z,22.92
2022-10-05T20:28:43.255Z,23.77
2022-10-05T20:31:12.674Z,22.38
2022-10-05T20:33:42.812Z,25.42
2022-10-05T20:36:11.502Z,31.08
2022-10-05T20:38:41.390Z,23.73
2022-10-05T20:41:10.459Z,25.50
2022-10-05T20:43:39.594Z,24.85
2022-10-05T20:46:08.953Z,20.55
2022-10-05T20:48:37.540Z,24.25
2022-10-05T20:51:08.141Z,29.65
2022-10-05T20:53:36.779Z,23.63
2022-10-05T20:56:05.478Z,34.05
2022-10-05T20:58:34.220Z,24.85
2022-10-05T21:01:19.979Z,25.48
2022-10-05T21:03:48.900Z,23.52
2022-10-05T21:06:19.353Z,27.10
2022-10-05T21:08:48.185Z,19.65
2022-10-05T21:11:16.742Z,22.33
2022-10-05T21:13:46.238Z,22.85
2022-10-05T21:16:18.592Z,23.05
2022-10-05T21:18:50.019Z,21.48
2022-10-05T21:21:21.063Z,27.75
2022-10-05T21:26:19.245Z,23.50
2022-10-05T21:28:47.979Z,18.58
2022-10-05T21:31:16.849Z,22.38
2022-10-05T21:33:45.667Z,25.55
2022-10-05T21:36:15.106Z,20.70
2022-10-05T21:38:45.826Z,25.85
2022-10-05T21:41:14.907Z,20.33
2022-10-05T21:43:43.844Z,23.38
2022-10-05T21:46:14.746Z,23.02
2022-10-05T21:51:16.608Z,29.70
2022-10-05T21:53:50.204Z,22.08
2022-10-05T21:56:23.785Z,21.42
2022-10-05T21:58:53.484Z,25.20
2022-10-05T22:01:23.102Z,21.38
2022-10-05T22:03:51.917Z,19.33
2022-10-05T22:06:20.518Z,26.48
2022-10-05T22:08:50.638Z,22.38
2022-10-05T22:11:19.479Z,23.58
2022-10-05T22:13:50.275Z,22.60
2022-10-05T22:16:21.376Z,24.55
2022-10-05T22:18:50.362Z,25.52
2022-10-05T22:21:21.176Z,28.10
2022-10-05T22:23:51.448Z,32.10
2022-10-05T22:26:23.253Z,20.57
2022-10-05T22:28:55.705Z,22.33
2022-10-05T22:31:24.879Z,22.27
2022-10-05T22:33:53.494Z,23.95
2022-10-05T22:36:22.928Z,26.33
2022-10-05T22:38:52.833Z,25.33
2022-10-05T22:41:21.442Z,24.17
2022-10-05T22:43:51.053Z,22.08
2022-10-05T22:46:20.072Z,28.02
2022-10-05T22:48:48.753Z,25.73
2022-10-05T22:51:17.346Z,27.45
2022-10-05T22:53:45.940Z,24.95
2022-10-05T22:56:16.456Z,23.80
2022-10-05T22:58:45.868Z,21.48
2022-10-05T23:01:16.535Z,22.10
2022-10-05T23:03:45.257Z,23.02
2022-10-05T23:06:15.555Z,29.63
2022-10-05T23:08:46.190Z,21.13
2022-10-05T23:11:18.218Z,25.25
2022-10-05T23:13:46.811Z,24.02
2022-10-05T23:16:17.327Z,21.15
2022-10-05T23:18:48.846Z,30.08
2022-10-05T23:21:18.446Z,27.63
2022-10-05T23:23:49.230Z,21.73
2022-10-05T23:26:21.960Z,21.13
2022-10-05T23:28:51.399Z,22.75
2022-10-05T23:31:21.924Z,25.77
2022-10-05T23:33:50.470Z,25.13
2022-10-05T23:36:20.510Z,24.92
2022-10-05T23:38:49.636Z,19.50
2022-10-05T23:41:20.943Z,25.88
2022-10-05T23:43:49.942Z,22.52
2022-10-05T23:46:19.213Z,22.98
2022-10-05T23:48:47.778Z,25.00
2022-10-05T23:51:16.719Z,22.48
2022-10-05T23:53:45.227Z,21.60
2022-10-05T23:56:14.013Z,26.38
2022-10-05T23:58:45.171Z,20.77
